Aérodrome :
LOGIN :

S'inscrire | Disclaimer

   EN    FR    IT 

 










Légende :    VFR   VFR Marginal   IFR   IFR Intensif   IFR Très Intensif
Visi : 
Plafond : 
>= 8 km
>= 3000ft
5 à 8 km
1000 à 3000 ft
1500m à 5 km
500 à 1000 ft
800 à 1500m
200 à 500 ft
< 800m
< 200 ft
Symboles :   Orages  Brouillard  Fortes neiges  Fortes précipitations  Vent > 20 kt
SIGMETs :   Divers  Orages  Givrage  Turbulence  Onde Orograph.  Cendres Volcan.






- Altitude de l'aérodrome : 187 ft


ETNW - Wunstorf AB

DERNIER METAR :
  • 210020Z 06004KT 2500 BR FEW002 BKN005 03/02 Q1015 YLO

METARs EXPIRÉS :
  • 202350Z 06003KT 2000 BR FEW001 BKN005 03/02 Q1015 YLO
  • 202320Z 08002KT 1000 BR FEW001 BKN005 03/02 Q1015 AMB
  • 202220Z 07003KT 0400 FG SCT001 OVC006 02/02 Q1016 RED

TAF TAF ETNW
Valide du 21 à 00h jusqu'au 22 à 00h UTC


202300Z 2100/2124 07005KT 3000 BR SCT001 BKN005
TEMPO 2100/2105 VRB03KT 0500 FG BKN001
BECMG 2105/2107 08007KT 5000 -DZ SCT003 OVC006
TEMPO 2105/2120 09005KT 1500 DZRA OVC002 BY ETGL



MET'MAP, la Météo Aéronautique d'un coup d'oeil ! - Copyright ORBIFLY Décembre 2007 - Disclaimer

ORBIFLY MET'MAP TEAM :

Programmation & Développement : Alexandra Zaïnal
Conception & Développement : Baudouin d'Aumeries
Co-Programmation & Développement : Marc-Olivier Méhu
Soutien technique & logistique : Manuel Goepfert

Contact : metmap@orbifly.com




SOURCES & CREDITS :

   NOAA